sensor_id;sensor_type;location;lat;lon;timestamp;temperature;humidity
21123;DHT22;10719;48.130;11.630;2023-02-25T00:00:07;2.50;99.90
21123;DHT22;10719;48.130;11.630;2023-02-25T00:02:42;2.50;99.90
21123;DHT22;10719;48.130;11.630;2023-02-25T00:05:07;2.50;99.90
21123;DHT22;10719;48.130;11.630;2023-02-25T00:07:33;2.50;99.90
21123;DHT22;10719;48.130;11.630;2023-02-25T00:09:59;2.30;99.90
21123;DHT22;10719;48.130;11.630;2023-02-25T00:12:24;2.20;99.90
21123;DHT22;10719;48.130;11.630;2023-02-25T00:14:52;2.20;99.90
21123;DHT22;10719;48.130;11.630;2023-02-25T00:17:17;2.20;99.90
21123;DHT22;10719;48.130;11.630;2023-02-25T00:19:43;2.10;99.90
21123;DHT22;10719;48.130;11.630;2023-02-25T00:22:10;2.00;99.90
21123;DHT22;10719;48.130;11.630;2023-02-25T00:24:36;1.90;99.90
21123;DHT22;10719;48.130;11.630;2023-02-25T00:27:02;1.90;99.90
21123;DHT22;10719;48.130;11.630;2023-02-25T00:29:28;1.90;99.90
21123;DHT22;10719;48.130;11.630;2023-02-25T00:31:54;1.80;99.90
21123;DHT22;10719;48.130;11.630;2023-02-25T00:34:19;1.80;99.90
21123;DHT22;10719;48.130;11.630;2023-02-25T00:36:45;1.80;99.90
21123;DHT22;10719;48.130;11.630;2023-02-25T00:39:11;1.80;99.90
21123;DHT22;10719;48.130;11.630;2023-02-25T00:41:36;1.70;99.90
21123;DHT22;10719;48.130;11.630;2023-02-25T00:44:03;1.80;99.90
21123;DHT22;10719;48.130;11.630;2023-02-25T00:46:30;1.70;99.90
21123;DHT22;10719;48.130;11.630;2023-02-25T00:48:56;1.70;99.90
21123;DHT22;10719;48.130;11.630;2023-02-25T00:51:26;1.70;99.90
21123;DHT22;10719;48.130;11.630;2023-02-25T00:53:52;1.60;99.90
21123;DHT22;10719;48.130;11.630;2023-02-25T00:56:20;1.50;99.90
21123;DHT22;10719;48.130;11.630;2023-02-25T00:58:47;1.40;99.90
21123;DHT22;10719;48.130;11.630;2023-02-25T01:01:31;1.50;99.90
21123;DHT22;10719;48.130;11.630;2023-02-25T01:03:58;1.50;99.90
21123;DHT22;10719;48.130;11.630;2023-02-25T01:06:25;1.50;99.90
21123;DHT22;10719;48.130;11.630;2023-02-25T01:08:51;1.40;99.90
21123;DHT22;10719;48.130;11.630;2023-02-25T01:11:23;1.40;99.90
21123;DHT22;10719;48.130;11.630;2023-02-25T01:13:52;1.40;99.90
21123;DHT22;10719;48.130;11.630;2023-02-25T01:16:23;1.30;99.90
21123;DHT22;10719;48.130;11.630;2023-02-25T01:18:54;1.20;99.90
21123;DHT22;10719;48.130;11.630;2023-02-25T01:21:23;1.20;99.90
21123;DHT22;10719;48.130;11.630;2023-02-25T01:23:57;1.20;99.90
21123;DHT22;10719;48.130;11.630;2023-02-25T01:26:24;1.20;99.90
21123;DHT22;10719;48.130;11.630;2023-02-25T01:28:50;1.20;99.90
21123;DHT22;10719;48.130;11.630;2023-02-25T01:31:17;1.20;99.90
21123;DHT22;10719;48.130;11.630;2023-02-25T01:33:44;1.20;99.90
21123;DHT22;10719;48.130;11.630;2023-02-25T01:36:09;1.20;99.90
21123;DHT22;10719;48.130;11.630;2023-02-25T01:38:35;1.20;99.90
21123;DHT22;10719;48.130;11.630;2023-02-25T01:41:01;1.10;99.90
21123;DHT22;10719;48.130;11.630;2023-02-25T01:43:28;1.10;99.90
21123;DHT22;10719;48.130;11.630;2023-02-25T01:45:54;1.00;99.90
21123;DHT22;10719;48.130;11.630;2023-02-25T01:48:22;1.00;99.90
21123;DHT22;10719;48.130;11.630;2023-02-25T01:50:58;1.00;99.90
21123;DHT22;10719;48.130;11.630;2023-02-25T01:53:29;1.00;99.90
21123;DHT22;10719;48.130;11.630;2023-02-25T01:55:58;1.00;99.90
21123;DHT22;10719;48.130;11.630;2023-02-25T01:58:26;1.00;99.90
21123;DHT22;10719;48.130;11.630;2023-02-25T02:00:52;0.90;99.90
21123;DHT22;10719;48.130;11.630;2023-02-25T02:03:31;1.00;99.90
21123;DHT22;10719;48.130;11.630;2023-02-25T02:06:20;1.00;99.90
21123;DHT22;10719;48.130;11.630;2023-02-25T02:08:47;1.00;99.90
21123;DHT22;10719;48.130;11.630;2023-02-25T02:11:13;1.00;99.90
21123;DHT22;10719;48.130;11.630;2023-02-25T02:13:43;1.10;99.90
21123;DHT22;10719;48.130;11.630;2023-02-25T02:19:08;1.10;99.90
21123;DHT22;10719;48.130;11.630;2023-02-25T02:24:27;1.20;99.90
21123;DHT22;10719;48.130;11.630;2023-02-25T02:27:00;1.20;99.90
21123;DHT22;10719;48.130;11.630;2023-02-25T02:38:48;1.10;99.90
21123;DHT22;10719;48.130;11.630;2023-02-25T02:41:35;1.10;99.90
21123;DHT22;10719;48.130;11.630;2023-02-25T02:44:16;1.10;99.90
21123;DHT22;10719;48.130;11.630;2023-02-25T02:46:51;1.10;99.90
21123;DHT22;10719;48.130;11.630;2023-02-25T02:49:35;1.00;99.90
21123;DHT22;10719;48.130;11.630;2023-02-25T02:52:15;1.00;99.90
21123;DHT22;10719;48.130;11.630;2023-02-25T02:54:45;1.00;99.90
21123;DHT22;10719;48.130;11.630;2023-02-25T02:57:14;1.00;99.90
21123;DHT22;10719;48.130;11.630;2023-02-25T02:59:46;1.00;99.90
21123;DHT22;10719;48.130;11.630;2023-02-25T03:02:29;1.10;99.90
21123;DHT22;10719;48.130;11.630;2023-02-25T03:05:04;1.10;99.90
21123;DHT22;10719;48.130;11.630;2023-02-25T03:07:37;1.10;99.90
21123;DHT22;10719;48.130;11.630;2023-02-25T03:10:06;1.10;99.90
21123;DHT22;10719;48.130;11.630;2023-02-25T03:12:34;1.00;99.90
21123;DHT22;10719;48.130;11.630;2023-02-25T03:15:03;1.00;99.90
21123;DHT22;10719;48.130;11.630;2023-02-25T03:17:33;1.00;99.90
21123;DHT22;10719;48.130;11.630;2023-02-25T03:20:12;1.00;99.90
21123;DHT22;10719;48.130;11.630;2023-02-25T03:22:43;1.00;99.90
21123;DHT22;10719;48.130;11.630;2023-02-25T03:25:20;1.00;99.90
21123;DHT22;10719;48.130;11.630;2023-02-25T03:27:47;1.00;99.90
21123;DHT22;10719;48.130;11.630;2023-02-25T03:30:34;1.00;99.90
21123;DHT22;10719;48.130;11.630;2023-02-25T03:33:12;1.00;99.90
21123;DHT22;10719;48.130;11.630;2023-02-25T03:35:42;1.00;99.90
21123;DHT22;10719;48.130;11.630;2023-02-25T03:38:11;1.00;99.90
21123;DHT22;10719;48.130;11.630;2023-02-25T03:40:39;1.00;99.90
21123;DHT22;10719;48.130;11.630;2023-02-25T03:43:08;1.10;99.90
21123;DHT22;10719;48.130;11.630;2023-02-25T03:45:38;1.10;99.90
21123;DHT22;10719;48.130;11.630;2023-02-25T03:48:05;1.10;99.90
21123;DHT22;10719;48.130;11.630;2023-02-25T03:50:53;1.10;99.90
21123;DHT22;10719;48.130;11.630;2023-02-25T03:53:24;1.10;99.90
21123;DHT22;10719;48.130;11.630;2023-02-25T03:55:49;1.10;99.90
21123;DHT22;10719;48.130;11.630;2023-02-25T03:58:15;1.20;99.90
21123;DHT22;10719;48.130;11.630;2023-02-25T04:00:43;1.10;99.90
21123;DHT22;10719;48.130;11.630;2023-02-25T04:03:10;1.10;99.90
21123;DHT22;10719;48.130;11.630;2023-02-25T04:05:37;1.20;99.90
21123;DHT22;10719;48.130;11.630;2023-02-25T04:08:03;1.20;99.90
21123;DHT22;10719;48.130;11.630;2023-02-25T04:10:31;1.20;99.90
21123;DHT22;10719;48.130;11.630;2023-02-25T04:12:57;1.10;99.90
21123;DHT22;10719;48.130;11.630;2023-02-25T04:15:23;1.10;99.90
21123;DHT22;10719;48.130;11.630;2023-02-25T04:17:53;1.20;99.90
21123;DHT22;10719;48.130;11.630;2023-02-25T04:20:18;1.20;99.90
21123;DHT22;10719;48.130;11.630;2023-02-25T04:22:44;1.20;99.90
21123;DHT22;10719;48.130;11.630;2023-02-25T04:25:10;1.20;99.90
21123;DHT22;10719;48.130;11.630;2023-02-25T04:27:35;1.20;99.90
21123;DHT22;10719;48.130;11.630;2023-02-25T04:30:01;1.20;99.90
21123;DHT22;10719;48.130;11.630;2023-02-25T04:32:26;1.20;99.90
21123;DHT22;10719;48.130;11.630;2023-02-25T04:34:52;1.20;99.90
21123;DHT22;10719;48.130;11.630;2023-02-25T04:37:17;1.20;99.90
21123;DHT22;10719;48.130;11.630;2023-02-25T04:39:43;1.20;99.90
21123;DHT22;10719;48.130;11.630;2023-02-25T04:42:09;1.20;99.90
21123;DHT22;10719;48.130;11.630;2023-02-25T04:44:35;1.20;99.90
21123;DHT22;10719;48.130;11.630;2023-02-25T04:47:00;1.20;99.90
21123;DHT22;10719;48.130;11.630;2023-02-25T04:49:26;1.20;99.90
21123;DHT22;10719;48.130;11.630;2023-02-25T04:51:51;1.20;99.90
21123;DHT22;10719;48.130;11.630;2023-02-25T04:54:20;1.20;99.90
21123;DHT22;10719;48.130;11.630;2023-02-25T04:56:46;1.20;99.90
21123;DHT22;10719;48.130;11.630;2023-02-25T04:59:12;1.20;99.90
21123;DHT22;10719;48.130;11.630;2023-02-25T05:01:38;1.20;99.90
21123;DHT22;10719;48.130;11.630;2023-02-25T05:04:04;1.10;99.90
21123;DHT22;10719;48.130;11.630;2023-02-25T05:06:30;1.20;99.90
21123;DHT22;10719;48.130;11.630;2023-02-25T05:08:56;1.20;99.90
21123;DHT22;10719;48.130;11.630;2023-02-25T05:11:23;1.20;99.90
21123;DHT22;10719;48.130;11.630;2023-02-25T05:13:50;1.20;99.90
21123;DHT22;10719;48.130;11.630;2023-02-25T05:16:18;1.10;99.90
21123;DHT22;10719;48.130;11.630;2023-02-25T05:18:45;1.20;99.90
21123;DHT22;10719;48.130;11.630;2023-02-25T05:21:13;1.20;99.90
21123;DHT22;10719;48.130;11.630;2023-02-25T05:23:40;1.30;99.90
21123;DHT22;10719;48.130;11.630;2023-02-25T05:26:06;1.20;99.90
21123;DHT22;10719;48.130;11.630;2023-02-25T05:28:32;1.30;99.90
21123;DHT22;10719;48.130;11.630;2023-02-25T05:30:57;1.30;99.90
21123;DHT22;10719;48.130;11.630;2023-02-25T05:33:23;1.30;99.90
21123;DHT22;10719;48.130;11.630;2023-02-25T05:35:49;1.30;99.90
21123;DHT22;10719;48.130;11.630;2023-02-25T05:38:15;1.30;99.90
21123;DHT22;10719;48.130;11.630;2023-02-25T05:40:40;1.30;99.90
21123;DHT22;10719;48.130;11.630;2023-02-25T05:43:06;1.30;99.90
21123;DHT22;10719;48.130;11.630;2023-02-25T05:45:33;1.40;99.90
21123;DHT22;10719;48.130;11.630;2023-02-25T05:47:59;1.40;99.90
21123;DHT22;10719;48.130;11.630;2023-02-25T05:50:25;1.40;99.90
21123;DHT22;10719;48.130;11.630;2023-02-25T05:52:50;1.50;99.90
21123;DHT22;10719;48.130;11.630;2023-02-25T05:55:16;1.40;99.90
21123;DHT22;10719;48.130;11.630;2023-02-25T05:57:42;1.40;99.90
21123;DHT22;10719;48.130;11.630;2023-02-25T06:00:08;1.40;99.90
21123;DHT22;10719;48.130;11.630;2023-02-25T06:02:35;1.40;99.90
21123;DHT22;10719;48.130;11.630;2023-02-25T06:05:01;1.40;99.90
21123;DHT22;10719;48.130;11.630;2023-02-25T06:07:31;1.40;99.90
21123;DHT22;10719;48.130;11.630;2023-02-25T06:09:58;1.40;99.90
21123;DHT22;10719;48.130;11.630;2023-02-25T06:12:29;1.50;99.90
21123;DHT22;10719;48.130;11.630;2023-02-25T06:14:55;1.40;99.90
21123;DHT22;10719;48.130;11.630;2023-02-25T06:17:20;1.50;99.90
21123;DHT22;10719;48.130;11.630;2023-02-25T06:19:46;1.50;99.90
21123;DHT22;10719;48.130;11.630;2023-02-25T06:22:12;1.50;99.90
21123;DHT22;10719;48.130;11.630;2023-02-25T06:24:37;1.50;99.90
21123;DHT22;10719;48.130;11.630;2023-02-25T06:27:05;1.50;99.90
21123;DHT22;10719;48.130;11.630;2023-02-25T06:29:30;1.50;99.90
21123;DHT22;10719;48.130;11.630;2023-02-25T06:31:56;1.50;99.90
21123;DHT22;10719;48.130;11.630;2023-02-25T06:34:21;1.60;99.90
21123;DHT22;10719;48.130;11.630;2023-02-25T06:36:47;1.50;99.90
21123;DHT22;10719;48.130;11.630;2023-02-25T06:39:12;1.50;99.90
21123;DHT22;10719;48.130;11.630;2023-02-25T06:41:38;1.50;99.90
21123;DHT22;10719;48.130;11.630;2023-02-25T06:44:04;1.60;99.90
21123;DHT22;10719;48.130;11.630;2023-02-25T06:46:30;1.60;99.90
21123;DHT22;10719;48.130;11.630;2023-02-25T06:48:56;1.60;99.90
21123;DHT22;10719;48.130;11.630;2023-02-25T06:51:22;1.70;99.90
21123;DHT22;10719;48.130;11.630;2023-02-25T06:53:48;1.60;99.90
21123;DHT22;10719;48.130;11.630;2023-02-25T06:56:15;1.70;99.90
21123;DHT22;10719;48.130;11.630;2023-02-25T06:58:42;1.70;99.90
21123;DHT22;10719;48.130;11.630;2023-02-25T07:01:13;1.80;99.90
21123;DHT22;10719;48.130;11.630;2023-02-25T07:03:39;1.70;99.90
21123;DHT22;10719;48.130;11.630;2023-02-25T07:06:05;1.70;99.90
21123;DHT22;10719;48.130;11.630;2023-02-25T07:08:31;1.70;99.90
21123;DHT22;10719;48.130;11.630;2023-02-25T07:11:13;1.80;99.90
21123;DHT22;10719;48.130;11.630;2023-02-25T07:13:39;1.80;99.90
21123;DHT22;10719;48.130;11.630;2023-02-25T07:16:08;1.90;99.90
21123;DHT22;10719;48.130;11.630;2023-02-25T07:18:33;1.90;99.90
21123;DHT22;10719;48.130;11.630;2023-02-25T07:20:59;2.00;99.90
21123;DHT22;10719;48.130;11.630;2023-02-25T07:23:24;1.90;99.90
21123;DHT22;10719;48.130;11.630;2023-02-25T07:25:50;2.00;99.90
21123;DHT22;10719;48.130;11.630;2023-02-25T07:28:15;1.90;99.90
21123;DHT22;10719;48.130;11.630;2023-02-25T07:30:41;1.90;99.90
21123;DHT22;10719;48.130;11.630;2023-02-25T07:33:07;2.00;99.90
21123;DHT22;10719;48.130;11.630;2023-02-25T07:35:32;2.10;99.90
21123;DHT22;10719;48.130;11.630;2023-02-25T07:37:58;2.10;99.90
21123;DHT22;10719;48.130;11.630;2023-02-25T07:40:24;2.20;99.90
21123;DHT22;10719;48.130;11.630;2023-02-25T07:42:50;2.20;99.90
21123;DHT22;10719;48.130;11.630;2023-02-25T07:45:16;2.20;99.90
21123;DHT22;10719;48.130;11.630;2023-02-25T07:47:41;2.20;99.90
21123;DHT22;10719;48.130;11.630;2023-02-25T07:50:08;2.10;99.90
21123;DHT22;10719;48.130;11.630;2023-02-25T07:52:34;2.20;99.90
21123;DHT22;10719;48.130;11.630;2023-02-25T07:55:02;2.20;99.90
21123;DHT22;10719;48.130;11.630;2023-02-25T07:57:28;2.30;99.90
21123;DHT22;10719;48.130;11.630;2023-02-25T07:59:54;2.50;99.90
21123;DHT22;10719;48.130;11.630;2023-02-25T08:02:19;2.60;99.90
21123;DHT22;10719;48.130;11.630;2023-02-25T08:04:46;2.70;99.90
21123;DHT22;10719;48.130;11.630;2023-02-25T08:07:11;2.70;99.90
21123;DHT22;10719;48.130;11.630;2023-02-25T08:09:37;2.60;99.90
21123;DHT22;10719;48.130;11.630;2023-02-25T08:12:03;2.60;99.90
21123;DHT22;10719;48.130;11.630;2023-02-25T08:14:28;2.60;99.90
21123;DHT22;10719;48.130;11.630;2023-02-25T08:16:55;2.70;99.90
21123;DHT22;10719;48.130;11.630;2023-02-25T08:19:21;2.70;99.90
21123;DHT22;10719;48.130;11.630;2023-02-25T08:21:46;2.70;99.90
21123;DHT22;10719;48.130;11.630;2023-02-25T08:24:12;2.70;99.90
21123;DHT22;10719;48.130;11.630;2023-02-25T08:26:38;2.60;99.90
21123;DHT22;10719;48.130;11.630;2023-02-25T08:29:03;2.60;99.90
21123;DHT22;10719;48.130;11.630;2023-02-25T08:31:29;2.60;99.90
21123;DHT22;10719;48.130;11.630;2023-02-25T08:33:55;2.70;99.90
21123;DHT22;10719;48.130;11.630;2023-02-25T08:36:26;2.70;99.90
21123;DHT22;10719;48.130;11.630;2023-02-25T08:38:52;2.70;99.90
21123;DHT22;10719;48.130;11.630;2023-02-25T08:41:20;2.60;99.90
21123;DHT22;10719;48.130;11.630;2023-02-25T08:43:50;2.60;99.90
21123;DHT22;10719;48.130;11.630;2023-02-25T08:46:19;2.60;99.90
21123;DHT22;10719;48.130;11.630;2023-02-25T08:48:50;2.70;99.90
21123;DHT22;10719;48.130;11.630;2023-02-25T08:51:17;2.80;99.90
21123;DHT22;10719;48.130;11.630;2023-02-25T08:53:43;2.80;99.90
21123;DHT22;10719;48.130;11.630;2023-02-25T08:56:11;2.70;99.90
21123;DHT22;10719;48.130;11.630;2023-02-25T08:58:37;2.70;99.90
21123;DHT22;10719;48.130;11.630;2023-02-25T09:01:08;2.70;99.90
21123;DHT22;10719;48.130;11.630;2023-02-25T09:03:38;2.80;99.90
21123;DHT22;10719;48.130;11.630;2023-02-25T09:06:04;2.90;99.90
21123;DHT22;10719;48.130;11.630;2023-02-25T09:08:30;2.90;99.90
21123;DHT22;10719;48.130;11.630;2023-02-25T09:10:56;3.00;99.90
21123;DHT22;10719;48.130;11.630;2023-02-25T09:13:21;3.10;99.90
21123;DHT22;10719;48.130;11.630;2023-02-25T09:15:55;3.10;99.90
21123;DHT22;10719;48.130;11.630;2023-02-25T09:18:20;3.20;99.90
21123;DHT22;10719;48.130;11.630;2023-02-25T09:20:49;3.10;99.90
21123;DHT22;10719;48.130;11.630;2023-02-25T09:23:15;3.10;99.90
21123;DHT22;10719;48.130;11.630;2023-02-25T09:25:41;3.20;99.90
21123;DHT22;10719;48.130;11.630;2023-02-25T09:28:11;3.30;99.90
21123;DHT22;10719;48.130;11.630;2023-02-25T09:30:38;3.30;99.90
21123;DHT22;10719;48.130;11.630;2023-02-25T09:33:03;3.40;99.90
21123;DHT22;10719;48.130;11.630;2023-02-25T09:35:29;3.30;99.90
21123;DHT22;10719;48.130;11.630;2023-02-25T09:37:55;3.10;99.90
21123;DHT22;10719;48.130;11.630;2023-02-25T09:40:21;2.90;99.90
21123;DHT22;10719;48.130;11.630;2023-02-25T09:45:22;3.00;99.90
21123;DHT22;10719;48.130;11.630;2023-02-25T09:48:00;2.90;99.90
21123;DHT22;10719;48.130;11.630;2023-02-25T09:50:39;3.00;99.90
21123;DHT22;10719;48.130;11.630;2023-02-25T09:53:16;3.00;99.90
21123;DHT22;10719;48.130;11.630;2023-02-25T09:55:45;3.00;99.90
21123;DHT22;10719;48.130;11.630;2023-02-25T09:58:24;3.00;99.90
21123;DHT22;10719;48.130;11.630;2023-02-25T10:01:02;3.00;99.90
21123;DHT22;10719;48.130;11.630;2023-02-25T10:06:17;2.90;99.90
21123;DHT22;10719;48.130;11.630;2023-02-25T10:08:52;3.00;99.90
21123;DHT22;10719;48.130;11.630;2023-02-25T10:17:04;2.80;99.90
21123;DHT22;10719;48.130;11.630;2023-02-25T10:25:29;2.90;99.90
21123;DHT22;10719;48.130;11.630;2023-02-25T10:27:59;3.00;99.90
21123;DHT22;10719;48.130;11.630;2023-02-25T10:30:47;3.00;99.90
21123;DHT22;10719;48.130;11.630;2023-02-25T10:33:18;3.10;99.90
21123;DHT22;10719;48.130;11.630;2023-02-25T10:35:47;3.10;99.90
21123;DHT22;10719;48.130;11.630;2023-02-25T10:38:15;3.00;99.90
21123;DHT22;10719;48.130;11.630;2023-02-25T10:40:41;3.10;99.90
21123;DHT22;10719;48.130;11.630;2023-02-25T10:43:21;3.20;99.90
21123;DHT22;10719;48.130;11.630;2023-02-25T10:45:53;3.20;99.90
21123;DHT22;10719;48.130;11.630;2023-02-25T10:48:24;3.30;99.90
21123;DHT22;10719;48.130;11.630;2023-02-25T10:51:09;3.60;99.90
21123;DHT22;10719;48.130;11.630;2023-02-25T10:56:17;4.00;99.90
21123;DHT22;10719;48.130;11.630;2023-02-25T10:58:45;4.20;99.90
21123;DHT22;10719;48.130;11.630;2023-02-25T11:01:22;4.10;99.90
21123;DHT22;10719;48.130;11.630;2023-02-25T11:04:00;4.10;99.90
21123;DHT22;10719;48.130;11.630;2023-02-25T11:06:46;4.10;99.90
21123;DHT22;10719;48.130;11.630;2023-02-25T11:11:59;4.00;99.90
21123;DHT22;10719;48.130;11.630;2023-02-25T11:14:27;4.00;99.90
21123;DHT22;10719;48.130;11.630;2023-02-25T11:19:34;4.20;99.90
21123;DHT22;10719;48.130;11.630;2023-02-25T11:22:10;4.30;99.90
21123;DHT22;10719;48.130;11.630;2023-02-25T11:24:40;4.60;99.90
21123;DHT22;10719;48.130;11.630;2023-02-25T11:27:22;4.60;99.90
21123;DHT22;10719;48.130;11.630;2023-02-25T11:29:50;4.80;99.90
21123;DHT22;10719;48.130;11.630;2023-02-25T11:32:18;5.00;99.90
21123;DHT22;10719;48.130;11.630;2023-02-25T11:35:01;5.20;99.90
21123;DHT22;10719;48.130;11.630;2023-02-25T11:37:41;5.00;99.90
21123;DHT22;10719;48.130;11.630;2023-02-25T11:40:32;4.80;99.90
21123;DHT22;10719;48.130;11.630;2023-02-25T11:45:36;4.90;99.90
21123;DHT22;10719;48.130;11.630;2023-02-25T11:48:12;4.90;99.90
21123;DHT22;10719;48.130;11.630;2023-02-25T11:53:33;4.50;99.90
21123;DHT22;10719;48.130;11.630;2023-02-25T11:56:27;4.20;99.90
21123;DHT22;10719;48.130;11.630;2023-02-25T11:59:23;4.30;99.90
21123;DHT22;10719;48.130;11.630;2023-02-25T12:26:14;8.30;99.90
21123;DHT22;10719;48.130;11.630;2023-02-25T12:35:13;11.10;99.90
21123;DHT22;10719;48.130;11.630;2023-02-25T12:42:48;9.30;99.90
21123;DHT22;10719;48.130;11.630;2023-02-25T12:51:33;6.70;99.90
21123;DHT22;10719;48.130;11.630;2023-02-25T13:11:06;6.80;99.90
21123;DHT22;10719;48.130;11.630;2023-02-25T13:25:37;8.50;99.90
21123;DHT22;10719;48.130;11.630;2023-02-25T13:30:54;7.30;99.90
21123;DHT22;10719;48.130;11.630;2023-02-25T13:33:36;7.40;99.90
21123;DHT22;10719;48.130;11.630;2023-02-25T13:47:28;11.00;99.90
21123;DHT22;10719;48.130;11.630;2023-02-25T13:58:39;8.10;99.90
21123;DHT22;10719;48.130;11.630;2023-02-25T14:04:23;6.80;99.90
21123;DHT22;10719;48.130;11.630;2023-02-25T14:12:53;5.40;99.90
21123;DHT22;10719;48.130;11.630;2023-02-25T14:24:08;4.90;99.90
21123;DHT22;10719;48.130;11.630;2023-02-25T14:41:08;4.40;99.90
21123;DHT22;10719;48.130;11.630;2023-02-25T14:43:37;4.30;99.90
21123;DHT22;10719;48.130;11.630;2023-02-25T14:49:20;4.30;99.90
21123;DHT22;10719;48.130;11.630;2023-02-25T15:14:51;3.90;99.90
21123;DHT22;10719;48.130;11.630;2023-02-25T15:28:02;4.10;99.90
21123;DHT22;10719;48.130;11.630;2023-02-25T15:33:32;4.20;99.90
21123;DHT22;10719;48.130;11.630;2023-02-25T15:36:00;4.20;99.90
21123;DHT22;10719;48.130;11.630;2023-02-25T15:38:53;4.20;99.90
21123;DHT22;10719;48.130;11.630;2023-02-25T15:46:44;4.00;99.90
21123;DHT22;10719;48.130;11.630;2023-02-25T15:49:27;4.00;99.90
21123;DHT22;10719;48.130;11.630;2023-02-25T15:51:57;4.00;99.90
21123;DHT22;10719;48.130;11.630;2023-02-25T15:56:59;3.80;99.90
21123;DHT22;10719;48.130;11.630;2023-02-25T15:59:47;3.90;99.90
21123;DHT22;10719;48.130;11.630;2023-02-25T16:07:33;3.90;99.90
21123;DHT22;10719;48.130;11.630;2023-02-25T16:10:05;3.90;99.90
21123;DHT22;10719;48.130;11.630;2023-02-25T16:12:32;3.90;99.90
21123;DHT22;10719;48.130;11.630;2023-02-25T16:14:58;3.90;99.90
21123;DHT22;10719;48.130;11.630;2023-02-25T16:17:33;3.90;99.90
21123;DHT22;10719;48.130;11.630;2023-02-25T16:20:16;3.90;99.90
21123;DHT22;10719;48.130;11.630;2023-02-25T16:22:45;3.80;99.90
21123;DHT22;10719;48.130;11.630;2023-02-25T16:25:18;3.70;99.90
21123;DHT22;10719;48.130;11.630;2023-02-25T16:28:04;3.70;99.90
21123;DHT22;10719;48.130;11.630;2023-02-25T16:30:53;3.70;99.90
21123;DHT22;10719;48.130;11.630;2023-02-25T16:35:59;3.80;99.90
21123;DHT22;10719;48.130;11.630;2023-02-25T16:41:20;3.60;99.90
21123;DHT22;10719;48.130;11.630;2023-02-25T16:43:46;3.60;99.90
21123;DHT22;10719;48.130;11.630;2023-02-25T16:46:15;3.60;99.90
21123;DHT22;10719;48.130;11.630;2023-02-25T16:48:50;3.60;99.90
21123;DHT22;10719;48.130;11.630;2023-02-25T16:53:58;3.50;99.90
21123;DHT22;10719;48.130;11.630;2023-02-25T16:56:28;3.50;99.90
21123;DHT22;10719;48.130;11.630;2023-02-25T17:01:22;3.50;99.90
21123;DHT22;10719;48.130;11.630;2023-02-25T17:03:48;3.50;99.90
21123;DHT22;10719;48.130;11.630;2023-02-25T17:06:16;3.50;99.90
21123;DHT22;10719;48.130;11.630;2023-02-25T17:08:48;3.50;99.90
21123;DHT22;10719;48.130;11.630;2023-02-25T17:11:24;3.50;99.90
21123;DHT22;10719;48.130;11.630;2023-02-25T17:13:52;3.50;99.90
21123;DHT22;10719;48.130;11.630;2023-02-25T17:16:26;3.40;99.90
21123;DHT22;10719;48.130;11.630;2023-02-25T17:18:55;3.40;99.90
21123;DHT22;10719;48.130;11.630;2023-02-25T17:21:27;3.40;99.90
21123;DHT22;10719;48.130;11.630;2023-02-25T17:23:55;3.30;99.90
21123;DHT22;10719;48.130;11.630;2023-02-25T17:26:22;3.30;99.90
21123;DHT22;10719;48.130;11.630;2023-02-25T17:28:52;3.30;99.90
21123;DHT22;10719;48.130;11.630;2023-02-25T17:31:21;3.30;99.90
21123;DHT22;10719;48.130;11.630;2023-02-25T17:34:02;3.30;99.90
21123;DHT22;10719;48.130;11.630;2023-02-25T17:36:37;3.30;99.90
21123;DHT22;10719;48.130;11.630;2023-02-25T17:39:11;3.30;99.90
21123;DHT22;10719;48.130;11.630;2023-02-25T17:41:39;3.30;99.90
21123;DHT22;10719;48.130;11.630;2023-02-25T17:44:09;3.30;99.90
21123;DHT22;10719;48.130;11.630;2023-02-25T17:46:38;3.20;99.90
21123;DHT22;10719;48.130;11.630;2023-02-25T17:49:27;3.20;99.90
21123;DHT22;10719;48.130;11.630;2023-02-25T17:51:56;3.20;99.90
21123;DHT22;10719;48.130;11.630;2023-02-25T17:54:24;3.20;99.90
21123;DHT22;10719;48.130;11.630;2023-02-25T17:57:02;3.20;99.90
21123;DHT22;10719;48.130;11.630;2023-02-25T18:02:01;2.50;99.90
21123;DHT22;10719;48.130;11.630;2023-02-25T18:04:39;2.10;99.90
21123;DHT22;10719;48.130;11.630;2023-02-25T18:09:48;1.40;99.90
21123;DHT22;10719;48.130;11.630;2023-02-25T18:12:33;1.20;99.90
21123;DHT22;10719;48.130;11.630;2023-02-25T18:15:01;1.00;99.90
21123;DHT22;10719;48.130;11.630;2023-02-25T18:17:33;0.80;99.90
21123;DHT22;10719;48.130;11.630;2023-02-25T18:20:02;0.70;99.90
21123;DHT22;10719;48.130;11.630;2023-02-25T18:22:44;0.50;99.90
21123;DHT22;10719;48.130;11.630;2023-02-25T18:27:59;0.30;99.90
21123;DHT22;10719;48.130;11.630;2023-02-25T18:30:28;0.20;99.90
21123;DHT22;10719;48.130;11.630;2023-02-25T18:32:54;0.10;99.90
21123;DHT22;10719;48.130;11.630;2023-02-25T18:35:22;0.00;99.90
21123;DHT22;10719;48.130;11.630;2023-02-25T18:37:50;0.10;99.90
21123;DHT22;10719;48.130;11.630;2023-02-25T18:40:24;0.10;99.90
21123;DHT22;10719;48.130;11.630;2023-02-25T18:42:50;0.10;99.90
21123;DHT22;10719;48.130;11.630;2023-02-25T18:45:21;0.10;99.90
21123;DHT22;10719;48.130;11.630;2023-02-25T18:47:47;0.00;99.90
21123;DHT22;10719;48.130;11.630;2023-02-25T18:50:14;0.10;99.90
21123;DHT22;10719;48.130;11.630;2023-02-25T18:52:40;0.10;99.90
21123;DHT22;10719;48.130;11.630;2023-02-25T18:55:08;0.10;99.90
21123;DHT22;10719;48.130;11.630;2023-02-25T18:57:37;0.10;99.90
21123;DHT22;10719;48.130;11.630;2023-02-25T19:00:03;0.10;99.90
21123;DHT22;10719;48.130;11.630;2023-02-25T19:02:38;0.10;99.90
21123;DHT22;10719;48.130;11.630;2023-02-25T19:05:09;0.00;99.90
21123;DHT22;10719;48.130;11.630;2023-02-25T19:07:35;0.10;99.90
21123;DHT22;10719;48.130;11.630;2023-02-25T19:10:01;0.10;99.90
21123;DHT22;10719;48.130;11.630;2023-02-25T19:12:28;0.10;99.90
21123;DHT22;10719;48.130;11.630;2023-02-25T19:14:59;0.10;99.90
21123;DHT22;10719;48.130;11.630;2023-02-25T19:17:29;0.00;99.90
21123;DHT22;10719;48.130;11.630;2023-02-25T19:19:55;0.10;99.90
21123;DHT22;10719;48.130;11.630;2023-02-25T19:22:22;0.00;99.90
21123;DHT22;10719;48.130;11.630;2023-02-25T19:24:48;0.10;99.90
21123;DHT22;10719;48.130;11.630;2023-02-25T19:27:25;0.10;99.90
21123;DHT22;10719;48.130;11.630;2023-02-25T19:29:56;0.10;99.90
21123;DHT22;10719;48.130;11.630;2023-02-25T19:32:24;0.10;99.90
21123;DHT22;10719;48.130;11.630;2023-02-25T19:34:50;0.10;99.90
21123;DHT22;10719;48.130;11.630;2023-02-25T19:37:18;0.20;99.90
21123;DHT22;10719;48.130;11.630;2023-02-25T19:39:46;0.20;99.90
21123;DHT22;10719;48.130;11.630;2023-02-25T19:42:12;0.20;99.90
21123;DHT22;10719;48.130;11.630;2023-02-25T19:44:39;0.20;99.90
21123;DHT22;10719;48.130;11.630;2023-02-25T19:47:05;0.30;99.90